createdAt,value
2023-05-04T00:02:17.892Z,4.27
2023-05-04T00:04:44.764Z,3.90
2023-05-04T00:07:11.647Z,3.47
2023-05-04T00:09:38.975Z,4.32
2023-05-04T00:12:06.189Z,4.00
2023-05-04T00:14:33.026Z,4.30
2023-05-04T00:16:59.951Z,3.63
2023-05-04T00:19:26.829Z,2.88
2023-05-04T00:21:53.568Z,2.97
2023-05-04T00:24:20.607Z,3.05
2023-05-04T00:26:47.370Z,3.30
2023-05-04T00:29:14.212Z,2.70
2023-05-04T00:31:41.291Z,3.17
2023-05-04T00:34:08.293Z,1.90
2023-05-04T00:36:35.549Z,2.00
2023-05-04T00:39:02.458Z,2.07
2023-05-04T00:41:29.458Z,2.50
2023-05-04T00:43:56.370Z,2.63
2023-05-04T00:46:23.576Z,2.28
2023-05-04T00:48:51.528Z,2.50
2023-05-04T00:51:21.277Z,2.20
2023-05-04T00:53:49.077Z,1.92
2023-05-04T00:56:16.843Z,2.45
2023-05-04T00:58:43.784Z,2.30
2023-05-04T01:01:10.878Z,2.40
2023-05-04T01:03:37.829Z,2.40
2023-05-04T01:07:03.621Z,2.28
2023-05-04T01:09:50.510Z,1.90
2023-05-04T01:12:20.004Z,1.95
2023-05-04T01:14:47.363Z,1.92
2023-05-04T01:17:14.453Z,2.00
2023-05-04T01:19:41.372Z,2.10
2023-05-04T01:22:08.200Z,1.90
2023-05-04T01:24:35.140Z,2.10
2023-05-04T01:27:24.649Z,2.28
2023-05-04T01:30:18.106Z,3.73
2023-05-04T01:32:46.021Z,4.30
2023-05-04T01:35:13.810Z,2.75
2023-05-04T01:37:41.412Z,2.17
2023-05-04T01:40:09.376Z,2.28
2023-05-04T01:42:36.308Z,1.90
2023-05-04T01:45:03.111Z,1.80
2023-05-04T01:47:30.186Z,2.10
2023-05-04T01:49:56.985Z,2.30
2023-05-04T01:52:23.898Z,2.30
2023-05-04T01:54:50.841Z,2.00
2023-05-04T01:57:17.852Z,2.00
2023-05-04T01:59:44.813Z,2.00
2023-05-04T02:02:11.707Z,2.15
2023-05-04T02:04:38.582Z,1.98
2023-05-04T02:07:05.409Z,2.17
2023-05-04T02:09:32.283Z,2.25
2023-05-04T02:11:59.079Z,2.00
2023-05-04T02:14:25.981Z,2.00
2023-05-04T02:16:52.817Z,2.20
2023-05-04T02:19:19.670Z,2.00
2023-05-04T02:21:46.421Z,1.90
2023-05-04T02:24:13.566Z,2.03
2023-05-04T02:26:40.404Z,2.47
2023-05-04T02:29:07.217Z,2.05
2023-05-04T02:31:34.260Z,1.80
2023-05-04T02:34:01.834Z,2.30
2023-05-04T02:36:28.735Z,2.00
2023-05-04T02:38:55.558Z,2.05
2023-05-04T02:41:22.378Z,2.03
2023-05-04T02:43:49.144Z,2.40
2023-05-04T02:46:16.034Z,2.20
2023-05-04T02:48:42.887Z,2.10
2023-05-04T02:51:09.792Z,2.20
2023-05-04T02:53:36.772Z,2.08
2023-05-04T02:56:03.651Z,2.37
2023-05-04T02:58:30.507Z,2.40
2023-05-04T03:00:57.390Z,2.40
2023-05-04T03:03:24.164Z,2.20
2023-05-04T03:05:51.045Z,2.20
2023-05-04T03:08:17.939Z,2.10
2023-05-04T03:10:44.777Z,2.50
2023-05-04T03:13:11.765Z,2.20
2023-05-04T03:15:38.664Z,2.28
2023-05-04T03:18:05.605Z,2.17
2023-05-04T03:20:32.490Z,2.20
2023-05-04T03:22:59.416Z,2.10
2023-05-04T03:25:26.249Z,2.25
2023-05-04T03:27:53.091Z,2.47
2023-05-04T03:30:20.159Z,2.40
2023-05-04T03:32:47.721Z,2.33
2023-05-04T03:37:58.504Z,3.53
2023-05-04T03:40:25.302Z,2.47
2023-05-04T03:42:52.160Z,2.30
2023-05-04T03:45:19.164Z,2.50
2023-05-04T03:47:46.005Z,2.20
2023-05-04T03:50:12.880Z,2.15
2023-05-04T03:52:39.701Z,1.90
2023-05-04T03:55:07.181Z,2.50
2023-05-04T03:57:34.139Z,2.13
2023-05-04T04:00:00.953Z,2.13
2023-05-04T04:02:27.753Z,2.67
2023-05-04T04:04:54.584Z,2.30
2023-05-04T04:07:21.508Z,2.60
2023-05-04T04:09:48.317Z,2.47
2023-05-04T04:12:15.382Z,2.17
2023-05-04T04:14:42.684Z,2.25
2023-05-04T04:17:09.485Z,2.33
2023-05-04T04:19:36.319Z,2.20
2023-05-04T04:22:03.232Z,2.70
2023-05-04T04:24:30.068Z,2.40
2023-05-04T04:26:56.913Z,2.60
2023-05-04T04:29:23.853Z,2.60
2023-05-04T04:31:50.778Z,2.30
2023-05-04T04:34:17.626Z,2.40
2023-05-04T04:36:44.689Z,2.78
2023-05-04T04:39:11.826Z,2.42
2023-05-04T04:41:38.619Z,2.45
2023-05-04T04:44:05.710Z,2.67
2023-05-04T04:46:32.566Z,2.60
2023-05-04T04:48:59.435Z,2.35
2023-05-04T04:51:26.594Z,2.40
2023-05-04T04:53:53.393Z,2.38
2023-05-04T04:56:20.411Z,2.70
2023-05-04T04:58:47.465Z,2.63
2023-05-04T05:01:14.613Z,3.05
2023-05-04T05:03:41.460Z,2.53
2023-05-04T05:06:08.370Z,2.60
2023-05-04T05:08:35.167Z,2.63
2023-05-04T05:11:01.898Z,2.70
2023-05-04T05:13:28.838Z,2.42
2023-05-04T05:15:55.576Z,2.50
2023-05-04T05:18:22.408Z,2.50
2023-05-04T05:20:49.235Z,2.70
2023-05-04T05:23:16.051Z,2.63
2023-05-04T05:25:44.089Z,2.70
2023-05-04T05:28:10.983Z,2.50
2023-05-04T05:30:37.792Z,2.88
2023-05-04T05:33:04.710Z,2.58
2023-05-04T05:35:31.795Z,2.30
2023-05-04T05:37:58.593Z,2.70
2023-05-04T05:40:25.387Z,2.25
2023-05-04T05:42:52.232Z,2.10
2023-05-04T05:45:19.015Z,2.60
2023-05-04T05:47:45.905Z,2.23
2023-05-04T05:50:13.922Z,2.70
2023-05-04T05:52:40.742Z,2.35
2023-05-04T05:55:07.911Z,2.15
2023-05-04T05:57:34.875Z,2.58
2023-05-04T06:00:01.815Z,2.40
2023-05-04T06:02:28.762Z,2.60
2023-05-04T06:04:56.148Z,2.40
2023-05-04T06:07:23.119Z,1.90
2023-05-04T06:09:50.170Z,2.17
2023-05-04T06:12:17.162Z,2.30
2023-05-04T06:14:43.953Z,2.42
2023-05-04T06:17:10.903Z,2.58
2023-05-04T06:19:38.588Z,2.95
2023-05-04T06:22:05.823Z,2.00
2023-05-04T06:24:33.229Z,2.23
2023-05-04T06:27:00.168Z,2.55
2023-05-04T06:29:26.926Z,2.80
2023-05-04T06:31:53.813Z,2.65
2023-05-04T06:34:20.938Z,2.25
2023-05-04T06:36:47.709Z,2.00
2023-05-04T06:39:14.768Z,2.30
2023-05-04T06:41:41.664Z,3.15
2023-05-04T06:44:08.677Z,2.45
2023-05-04T06:46:35.841Z,2.47
2023-05-04T06:49:02.824Z,2.00
2023-05-04T06:51:29.923Z,2.00
2023-05-04T06:53:56.944Z,2.30
2023-05-04T06:56:23.954Z,2.70
2023-05-04T06:58:50.906Z,2.50
2023-05-04T07:01:18.559Z,2.63
2023-05-04T07:03:45.644Z,2.00
2023-05-04T07:06:12.429Z,2.00
2023-05-04T07:08:39.723Z,2.45
2023-05-04T07:11:06.689Z,2.40
2023-05-04T07:13:33.587Z,2.60
2023-05-04T07:16:00.375Z,2.38
2023-05-04T07:18:27.407Z,2.53
2023-05-04T07:21:01.613Z,2.50
2023-05-04T07:23:33.114Z,2.50
2023-05-04T07:26:00.149Z,2.47
2023-05-04T07:28:26.945Z,2.30
2023-05-04T07:30:53.775Z,2.22
2023-05-04T07:33:20.571Z,2.60
2023-05-04T07:35:47.716Z,2.60
2023-05-04T07:38:14.891Z,2.60
2023-05-04T07:40:41.743Z,2.30
2023-05-04T07:43:08.535Z,2.28
2023-05-04T07:45:35.454Z,2.50
2023-05-04T07:48:02.668Z,2.75
2023-05-04T07:50:29.553Z,2.57
2023-05-04T07:52:56.429Z,2.40
2023-05-04T07:55:24.670Z,2.28
2023-05-04T07:57:51.492Z,2.20
2023-05-04T08:00:23.812Z,2.22
2023-05-04T08:02:50.765Z,3.47
2023-05-04T08:05:17.846Z,3.10
2023-05-04T08:07:44.745Z,5.15
2023-05-04T08:10:11.575Z,4.88
2023-05-04T08:12:40.434Z,4.63
2023-05-04T08:15:08.061Z,5.10
2023-05-04T08:17:34.995Z,5.47
2023-05-04T08:20:01.888Z,5.18
2023-05-04T08:22:28.929Z,5.40
2023-05-04T08:24:55.778Z,6.25
2023-05-04T08:27:22.604Z,5.03
2023-05-04T08:29:49.482Z,3.70
2023-05-04T08:32:16.284Z,3.92
2023-05-04T08:34:43.166Z,4.00
2023-05-04T08:37:10.184Z,4.15
2023-05-04T08:39:36.987Z,4.27
2023-05-04T08:42:03.855Z,3.92
2023-05-04T08:44:30.680Z,3.70
2023-05-04T08:46:57.702Z,3.97
2023-05-04T08:49:24.805Z,3.40
2023-05-04T08:51:52.343Z,3.10
2023-05-04T08:54:19.898Z,3.80
2023-05-04T08:56:47.992Z,3.65
2023-05-04T08:59:22.851Z,3.20
2023-05-04T09:01:57.512Z,3.25
2023-05-04T09:04:25.926Z,3.90
2023-05-04T09:06:53.979Z,4.60
2023-05-04T09:09:29.719Z,3.72
2023-05-04T09:11:56.566Z,2.95
2023-05-04T09:14:32.730Z,4.50
2023-05-04T09:17:00.646Z,4.80
2023-05-04T09:19:27.566Z,4.35
2023-05-04T09:21:54.493Z,4.40
2023-05-04T09:24:28.400Z,4.78
2023-05-04T09:26:55.736Z,7.20
2023-05-04T09:29:22.718Z,5.13
2023-05-04T09:31:51.196Z,5.00
2023-05-04T09:34:19.115Z,5.43
2023-05-04T09:36:46.119Z,5.60
2023-05-04T09:39:13.967Z,4.60
2023-05-04T09:41:41.461Z,5.80
2023-05-04T09:44:22.208Z,5.40
2023-05-04T09:46:56.087Z,5.05
2023-05-04T09:49:36.509Z,4.30
2023-05-04T09:52:06.135Z,4.28
2023-05-04T09:54:34.593Z,3.57
2023-05-04T09:57:12.181Z,2.97
2023-05-04T09:59:39.741Z,3.35
2023-05-04T10:02:21.142Z,3.17
2023-05-04T10:04:52.017Z,4.10
2023-05-04T10:07:19.631Z,4.10
2023-05-04T10:09:48.855Z,3.53
2023-05-04T10:12:15.956Z,3.17
2023-05-04T10:14:43.106Z,3.25
2023-05-04T10:17:31.770Z,2.80
2023-05-04T10:20:08.246Z,2.60
2023-05-04T10:22:40.888Z,3.10
2023-05-04T10:25:28.237Z,3.13
2023-05-04T10:27:55.177Z,3.38
2023-05-04T10:30:23.695Z,3.13
2023-05-04T10:32:57.041Z,3.60
2023-05-04T10:35:24.637Z,3.30
2023-05-04T10:37:53.306Z,3.00
2023-05-04T10:40:40.218Z,3.20
2023-05-04T10:43:08.789Z,3.53
2023-05-04T10:45:42.089Z,3.30
2023-05-04T10:48:09.763Z,3.15
2023-05-04T10:50:47.268Z,3.45
2023-05-04T10:53:15.634Z,3.20
2023-05-04T10:55:44.621Z,3.20
2023-05-04T10:58:13.733Z,3.47
2023-05-04T11:00:41.927Z,3.72
2023-05-04T11:03:09.141Z,3.58
2023-05-04T11:05:47.602Z,3.40
2023-05-04T11:08:16.670Z,3.47
2023-05-04T11:10:43.713Z,3.53
2023-05-04T11:13:14.296Z,3.50
2023-05-04T11:15:50.719Z,3.55
2023-05-04T11:18:27.174Z,3.97
2023-05-04T11:20:54.851Z,3.50
2023-05-04T11:23:21.986Z,3.73
2023-05-04T11:25:49.244Z,4.00
2023-05-04T11:28:17.391Z,3.90
2023-05-04T11:30:44.563Z,3.67
2023-05-04T11:33:12.838Z,3.60
2023-05-04T11:35:40.616Z,3.70
2023-05-04T11:38:07.763Z,3.75
2023-05-04T11:40:36.242Z,4.40
2023-05-04T11:43:03.876Z,4.32
2023-05-04T11:45:33.134Z,3.75
2023-05-04T11:48:00.567Z,3.67
2023-05-04T11:50:29.180Z,3.97
2023-05-04T11:53:10.241Z,3.92
2023-05-04T11:55:37.590Z,3.80
2023-05-04T11:58:11.934Z,4.25
2023-05-04T12:00:48.773Z,3.80
2023-05-04T12:03:17.579Z,4.20
2023-05-04T12:05:48.534Z,3.80
2023-05-04T12:08:33.066Z,3.97
2023-05-04T12:11:16.970Z,3.90
2023-05-04T12:13:45.763Z,4.00
2023-05-04T12:16:13.589Z,3.50
2023-05-04T12:18:41.300Z,3.70
2023-05-04T12:21:10.138Z,2.80
2023-05-04T12:23:37.558Z,3.15
2023-05-04T12:26:04.313Z,3.30
2023-05-04T12:28:31.246Z,2.92
2023-05-04T12:30:58.059Z,2.90
2023-05-04T12:33:24.910Z,2.20
2023-05-04T12:35:51.980Z,1.80
2023-05-04T12:38:18.842Z,1.30
2023-05-04T12:40:45.775Z,1.65
2023-05-04T12:43:12.713Z,1.80
2023-05-04T12:45:39.561Z,1.50
2023-05-04T12:48:06.567Z,1.42
2023-05-04T12:50:33.517Z,1.60
2023-05-04T12:53:00.401Z,1.23
2023-05-04T12:55:27.141Z,1.30
2023-05-04T12:57:53.975Z,1.17
2023-05-04T13:00:21.112Z,1.17
2023-05-04T13:02:48.083Z,1.13
2023-05-04T13:05:15.250Z,1.20
2023-05-04T13:07:42.165Z,1.58
2023-05-04T13:10:09.484Z,1.10
2023-05-04T13:12:37.176Z,1.10
2023-05-04T13:15:06.091Z,1.20
2023-05-04T13:17:33.076Z,1.50
2023-05-04T13:20:00.623Z,1.33
2023-05-04T13:22:28.736Z,1.40
2023-05-04T13:24:55.596Z,1.30
2023-05-04T13:27:22.447Z,1.17
2023-05-04T13:29:49.271Z,3.15
2023-05-04T13:32:16.152Z,1.10
2023-05-04T13:34:43.588Z,1.20
2023-05-04T13:37:10.355Z,1.10
2023-05-04T13:39:41.331Z,1.00
2023-05-04T13:42:08.643Z,1.25
2023-05-04T13:44:35.978Z,1.20
2023-05-04T13:47:04.103Z,1.30
2023-05-04T13:49:31.090Z,2.90
2023-05-04T13:51:58.457Z,1.07
2023-05-04T13:54:25.651Z,1.10
2023-05-04T13:56:52.671Z,0.88
2023-05-04T13:59:20.327Z,0.90
2023-05-04T14:01:47.149Z,0.90
2023-05-04T14:04:14.128Z,1.20
2023-05-04T14:06:41.075Z,1.00
2023-05-04T14:09:08.449Z,1.17
2023-05-04T14:11:35.371Z,1.13
2023-05-04T14:14:02.238Z,1.20
2023-05-04T14:16:29.240Z,1.90
2023-05-04T14:18:56.402Z,2.20
2023-05-04T14:21:23.221Z,1.40
2023-05-04T14:23:50.376Z,1.45
2023-05-04T14:26:17.332Z,1.10
2023-05-04T14:28:44.193Z,1.50
2023-05-04T14:31:11.015Z,1.15
2023-05-04T14:33:42.062Z,1.42
2023-05-04T14:36:11.368Z,1.25
2023-05-04T14:38:38.418Z,2.50
2023-05-04T14:41:05.984Z,1.70
2023-05-04T14:43:32.842Z,1.83
2023-05-04T14:45:59.849Z,1.70
2023-05-04T14:48:27.461Z,2.05
2023-05-04T14:50:55.006Z,1.90
2023-05-04T14:53:22.376Z,1.70
2023-05-04T14:55:50.339Z,1.67
2023-05-04T14:58:17.969Z,2.08
2023-05-04T15:00:45.882Z,1.80
2023-05-04T15:03:12.977Z,1.80
2023-05-04T15:05:40.163Z,1.60
2023-05-04T15:08:06.971Z,1.80
2023-05-04T15:10:34.247Z,1.77
2023-05-04T15:13:01.243Z,1.83
2023-05-04T15:15:28.185Z,1.77
2023-05-04T15:17:55.289Z,1.70
2023-05-04T15:20:22.226Z,1.30
2023-05-04T15:22:49.156Z,1.50
2023-05-04T15:25:16.146Z,1.55
2023-05-04T15:27:43.984Z,1.60
2023-05-04T15:30:11.132Z,1.30
2023-05-04T15:32:39.317Z,1.45
2023-05-04T15:35:06.686Z,1.60
2023-05-04T15:37:34.128Z,1.63
2023-05-04T15:40:17.921Z,1.40
2023-05-04T15:42:44.858Z,1.50
2023-05-04T15:45:11.722Z,1.60
2023-05-04T15:47:38.828Z,1.40
2023-05-04T15:50:06.690Z,2.00
2023-05-04T15:52:33.727Z,1.70
2023-05-04T15:55:09.184Z,1.70
2023-05-04T15:57:43.750Z,1.65
2023-05-04T16:00:11.265Z,1.73
2023-05-04T16:02:38.239Z,1.92
2023-05-04T16:05:05.415Z,3.25
2023-05-04T16:07:33.754Z,1.93
2023-05-04T16:10:00.761Z,1.70
2023-05-04T16:12:28.913Z,1.80
2023-05-04T16:14:56.008Z,1.60
2023-05-04T16:17:27.191Z,2.13
2023-05-04T16:20:02.894Z,1.90
2023-05-04T16:22:30.551Z,2.22
2023-05-04T16:24:57.579Z,1.88
2023-05-04T16:27:24.497Z,1.67
2023-05-04T16:30:05.020Z,2.33
2023-05-04T16:32:47.694Z,2.00
2023-05-04T16:35:14.471Z,2.45
2023-05-04T16:37:41.607Z,2.58
2023-05-04T16:40:12.687Z,2.40
2023-05-04T16:42:39.722Z,2.28
2023-05-04T16:45:07.168Z,2.00
2023-05-04T16:47:35.943Z,2.15
2023-05-04T16:50:03.427Z,2.38
2023-05-04T16:52:30.339Z,2.25
2023-05-04T16:54:58.763Z,2.30
2023-05-04T16:57:34.563Z,2.30
2023-05-04T17:00:05.084Z,1.92
2023-05-04T17:02:32.215Z,2.00
2023-05-04T17:04:59.611Z,1.98
2023-05-04T17:10:52.351Z,2.30
2023-05-04T17:13:20.545Z,2.80
2023-05-04T17:15:47.504Z,4.00
2023-05-04T17:18:23.074Z,4.75
2023-05-04T17:20:49.998Z,3.85
2023-05-04T17:23:17.164Z,4.00
2023-05-04T17:25:44.368Z,3.17
2023-05-04T17:28:13.350Z,2.50
2023-05-04T17:30:40.496Z,2.42
2023-05-04T17:33:07.940Z,2.70
2023-05-04T17:35:38.324Z,3.77
2023-05-04T17:38:05.283Z,4.28
2023-05-04T17:40:32.427Z,3.90
2023-05-04T17:42:59.648Z,4.00
2023-05-04T17:45:29.314Z,4.60
2023-05-04T17:47:57.743Z,3.93
2023-05-04T17:50:24.940Z,3.83
2023-05-04T17:52:55.657Z,3.70
2023-05-04T17:55:24.576Z,3.05
2023-05-04T17:57:53.101Z,3.40
2023-05-04T18:00:20.758Z,4.10
2023-05-04T18:02:48.026Z,2.95
2023-05-04T18:05:17.993Z,3.10
2023-05-04T18:07:50.055Z,3.70
2023-05-04T18:10:17.948Z,3.88
2023-05-04T18:12:45.169Z,4.07
2023-05-04T18:15:12.332Z,4.15
2023-05-04T18:17:39.477Z,4.45
2023-05-04T18:20:07.501Z,3.30
2023-05-04T18:22:34.767Z,3.65
2023-05-04T18:25:01.923Z,4.00
2023-05-04T18:27:39.215Z,3.60
2023-05-04T18:30:07.542Z,4.80
2023-05-04T18:32:40.909Z,5.05
2023-05-04T18:35:11.413Z,4.40
2023-05-04T18:37:38.457Z,3.80
2023-05-04T18:40:06.132Z,3.30
2023-05-04T18:42:33.260Z,2.50
2023-05-04T18:45:00.334Z,2.33
2023-05-04T18:47:27.522Z,1.95
2023-05-04T18:49:55.151Z,2.20
2023-05-04T18:52:22.399Z,3.20
2023-05-04T18:54:49.631Z,3.00
2023-05-04T18:57:28.874Z,2.83
2023-05-04T18:59:56.981Z,2.38
2023-05-04T19:02:23.932Z,2.60
2023-05-04T19:04:50.826Z,2.42
2023-05-04T19:07:17.794Z,2.63
2023-05-04T19:09:44.722Z,3.00
2023-05-04T19:12:11.789Z,4.80
2023-05-04T19:14:38.743Z,3.03
2023-05-04T19:17:05.563Z,2.70
2023-05-04T19:19:38.587Z,3.05
2023-05-04T19:22:07.461Z,4.50
2023-05-04T19:24:34.418Z,3.90
2023-05-04T19:27:01.446Z,4.70
2023-05-04T19:29:28.505Z,4.03
2023-05-04T19:31:59.584Z,3.60
2023-05-04T19:34:38.661Z,2.85
2023-05-04T19:37:15.687Z,3.28
2023-05-04T19:42:24.187Z,3.40
2023-05-04T19:44:51.223Z,3.80
2023-05-04T19:47:18.126Z,5.22
2023-05-04T19:49:48.315Z,5.60
2023-05-04T19:52:24.658Z,4.77
2023-05-04T19:55:10.775Z,3.70
2023-05-04T19:57:46.355Z,3.30
2023-05-04T20:00:19.776Z,3.10
2023-05-04T20:02:47.187Z,3.80
2023-05-04T20:05:14.305Z,3.30
2023-05-04T20:07:42.167Z,3.97
2023-05-04T20:10:09.380Z,4.03
2023-05-04T20:12:39.906Z,4.28
2023-05-04T20:17:49.497Z,4.00
2023-05-04T20:20:16.343Z,3.50
2023-05-04T20:22:43.166Z,3.20
2023-05-04T20:25:10.156Z,3.60
2023-05-04T20:27:37.225Z,3.10
2023-05-04T20:30:04.848Z,2.83
2023-05-04T20:32:41.743Z,2.80
2023-05-04T20:35:09.276Z,3.78
2023-05-04T20:37:39.147Z,2.90
2023-05-04T20:40:07.340Z,3.10
2023-05-04T20:42:34.505Z,3.40
2023-05-04T20:45:01.388Z,3.30
2023-05-04T20:47:34.908Z,3.47
2023-05-04T20:50:09.480Z,2.80
2023-05-04T20:52:36.585Z,3.00
2023-05-04T20:55:03.563Z,2.80
2023-05-04T20:57:30.371Z,3.10
2023-05-04T20:59:57.467Z,3.20
2023-05-04T21:02:30.136Z,3.05
2023-05-04T21:04:57.768Z,5.25
2023-05-04T21:07:26.937Z,2.90
2023-05-04T21:10:00.131Z,2.97
2023-05-04T21:12:27.171Z,3.83
2023-05-04T21:14:55.870Z,3.63
2023-05-04T21:17:22.885Z,3.08
2023-05-04T21:19:49.712Z,3.43
2023-05-04T21:22:19.701Z,2.95
2023-05-04T21:24:47.078Z,2.95
2023-05-04T21:27:14.067Z,3.58
2023-05-04T21:29:41.161Z,2.72
2023-05-04T21:32:08.160Z,3.50
2023-05-04T21:34:35.038Z,4.40
2023-05-04T21:37:01.826Z,3.20
2023-05-04T21:39:30.343Z,3.22
2023-05-04T21:41:57.625Z,2.50
2023-05-04T21:44:24.467Z,3.23
2023-05-04T21:46:51.311Z,3.65
2023-05-04T21:49:18.194Z,4.45
2023-05-04T21:51:47.564Z,5.10
2023-05-04T21:54:14.579Z,5.50
2023-05-04T21:56:41.395Z,4.90
2023-05-04T21:59:08.456Z,5.13
2023-05-04T22:01:35.345Z,4.78
2023-05-04T22:04:02.197Z,4.10
2023-05-04T22:06:29.053Z,4.68
2023-05-04T22:08:55.925Z,5.27
2023-05-04T22:11:22.735Z,4.60
2023-05-04T22:13:49.763Z,4.72
2023-05-04T22:16:38.203Z,4.60
2023-05-04T22:19:05.107Z,4.30
2023-05-04T22:21:32.020Z,3.17
2023-05-04T22:23:59.640Z,3.40
2023-05-04T22:26:27.023Z,3.78
2023-05-04T22:28:54.007Z,3.38
2023-05-04T22:31:21.310Z,3.63
2023-05-04T22:33:48.511Z,3.60
2023-05-04T22:36:15.584Z,3.10
2023-05-04T22:38:42.808Z,3.72
2023-05-04T22:41:09.873Z,3.38
2023-05-04T22:43:36.720Z,3.30
2023-05-04T22:46:03.781Z,3.23
2023-05-04T22:48:30.958Z,3.28
2023-05-04T22:50:57.753Z,3.72
2023-05-04T22:53:24.821Z,4.00
2023-05-04T22:55:51.791Z,4.07
2023-05-04T22:58:18.588Z,4.20
2023-05-04T23:00:45.502Z,4.70
2023-05-04T23:03:12.554Z,4.95
2023-05-04T23:05:44.585Z,6.00
2023-05-04T23:08:12.715Z,5.10
2023-05-04T23:10:49.316Z,5.63
2023-05-04T23:13:16.476Z,5.20
2023-05-04T23:15:43.317Z,5.10
2023-05-04T23:18:10.862Z,5.03
2023-05-04T23:20:37.960Z,6.95
2023-05-04T23:23:04.966Z,5.50
2023-05-04T23:25:31.803Z,6.13
2023-05-04T23:28:00.476Z,6.15
2023-05-04T23:30:27.266Z,5.53
2023-05-04T23:32:54.216Z,5.72
2023-05-04T23:35:22.846Z,5.30
2023-05-04T23:37:49.870Z,4.53
2023-05-04T23:40:17.093Z,5.05
2023-05-04T23:42:44.412Z,5.47
2023-05-04T23:45:11.808Z,5.38
2023-05-04T23:47:38.842Z,5.07
2023-05-04T23:50:06.552Z,5.10
2023-05-04T23:52:33.520Z,5.40
2023-05-04T23:55:00.658Z,5.97
2023-05-04T23:57:27.672Z,6.68
2023-05-04T23:59:54.580Z,6.60
